sensor_id;sensor_type;location;lat;lon;timestamp;pressure;altitude;pressure_sealevel;temperature;humidity
21742;BME280;11033;47.490;11.116;2022-08-19T00:01:54;92744.94;;;18.64;84.15
21742;BME280;11033;47.490;11.116;2022-08-19T00:04:24;92747.91;;;18.68;84.40
21742;BME280;11033;47.490;11.116;2022-08-19T00:06:50;92754.25;;;18.62;84.82
21742;BME280;11033;47.490;11.116;2022-08-19T00:09:18;92735.06;;;18.65;83.28
21742;BME280;11033;47.490;11.116;2022-08-19T00:11:44;92732.47;;;18.70;82.47
21742;BME280;11033;47.490;11.116;2022-08-19T00:14:12;92741.47;;;18.64;83.48
21742;BME280;11033;47.490;11.116;2022-08-19T00:16:39;92736.41;;;18.46;86.05
21742;BME280;11033;47.490;11.116;2022-08-19T00:19:06;92735.91;;;18.49;84.22
21742;BME280;11033;47.490;11.116;2022-08-19T00:21:32;92736.28;;;18.35;85.78
21742;BME280;11033;47.490;11.116;2022-08-19T00:23:57;92741.06;;;18.33;85.61
21742;BME280;11033;47.490;11.116;2022-08-19T00:26:24;92742.38;;;18.53;83.08
21742;BME280;11033;47.490;11.116;2022-08-19T00:28:49;92750.44;;;18.58;83.36
21742;BME280;11033;47.490;11.116;2022-08-19T00:31:15;92742.53;;;18.63;81.24
21742;BME280;11033;47.490;11.116;2022-08-19T00:33:41;92748.66;;;18.63;82.33
21742;BME280;11033;47.490;11.116;2022-08-19T00:36:08;92742.97;;;18.60;83.26
21742;BME280;11033;47.490;11.116;2022-08-19T00:38:37;92739.44;;;18.54;83.91
21742;BME280;11033;47.490;11.116;2022-08-19T00:41:05;92749.63;;;18.57;82.88
21742;BME280;11033;47.490;11.116;2022-08-19T00:43:30;92747.69;;;18.53;83.62
21742;BME280;11033;47.490;11.116;2022-08-19T00:45:55;92746.72;;;18.59;83.34
21742;BME280;11033;47.490;11.116;2022-08-19T00:48:21;92738.47;;;18.60;81.61
21742;BME280;11033;47.490;11.116;2022-08-19T00:50:49;92736.53;;;18.56;81.75
21742;BME280;11033;47.490;11.116;2022-08-19T00:53:19;92735.22;;;18.58;81.81
21742;BME280;11033;47.490;11.116;2022-08-19T00:55:46;92724.31;;;18.60;81.56
21742;BME280;11033;47.490;11.116;2022-08-19T00:58:15;92722.38;;;18.55;84.42
21742;BME280;11033;47.490;11.116;2022-08-19T01:00:41;92711.84;;;18.44;85.37
21742;BME280;11033;47.490;11.116;2022-08-19T01:03:10;92717.78;;;18.51;83.12
21742;BME280;11033;47.490;11.116;2022-08-19T01:12:19;92724.25;;;18.55;80.73
21742;BME280;11033;47.490;11.116;2022-08-19T01:14:45;92726.91;;;18.55;81.34
21742;BME280;11033;47.490;11.116;2022-08-19T01:17:12;92718.91;;;18.55;81.66
21742;BME280;11033;47.490;11.116;2022-08-19T01:19:41;92727.59;;;18.45;83.01
21742;BME280;11033;47.490;11.116;2022-08-19T01:24:53;92744.91;;;18.43;82.03
21742;BME280;11033;47.490;11.116;2022-08-19T01:27:18;92754.03;;;18.47;82.96
21742;BME280;11033;47.490;11.116;2022-08-19T01:29:44;92754.88;;;18.30;86.29
21742;BME280;11033;47.490;11.116;2022-08-19T01:32:13;92755.50;;;18.37;84.68
21742;BME280;11033;47.490;11.116;2022-08-19T01:34:40;92753.41;;;18.40;83.77
21742;BME280;11033;47.490;11.116;2022-08-19T01:37:10;92749.06;;;18.33;85.03
21742;BME280;11033;47.490;11.116;2022-08-19T01:39:37;92752.28;;;18.35;84.48
21742;BME280;11033;47.490;11.116;2022-08-19T01:42:03;92754.41;;;18.33;84.67
21742;BME280;11033;47.490;11.116;2022-08-19T01:44:29;92752.28;;;18.35;84.90
21742;BME280;11033;47.490;11.116;2022-08-19T01:46:55;92757.44;;;18.42;83.52
21742;BME280;11033;47.490;11.116;2022-08-19T01:49:23;92753.53;;;18.28;86.77
21742;BME280;11033;47.490;11.116;2022-08-19T01:51:49;92764.50;;;18.31;85.51
21742;BME280;11033;47.490;11.116;2022-08-19T01:54:16;92772.44;;;18.26;87.32
21742;BME280;11033;47.490;11.116;2022-08-19T01:56:41;92763.63;;;18.26;86.41
21742;BME280;11033;47.490;11.116;2022-08-19T01:59:12;92760.63;;;18.22;88.08
21742;BME280;11033;47.490;11.116;2022-08-19T02:01:39;92769.59;;;18.33;84.51
21742;BME280;11033;47.490;11.116;2022-08-19T02:04:05;92781.72;;;18.24;87.70
21742;BME280;11033;47.490;11.116;2022-08-19T02:06:31;92779.13;;;18.29;85.01
21742;BME280;11033;47.490;11.116;2022-08-19T02:08:56;92770.31;;;18.28;84.24
21742;BME280;11033;47.490;11.116;2022-08-19T02:11:25;92765.31;;;18.15;87.89
21742;BME280;11033;47.490;11.116;2022-08-19T02:13:52;92764.25;;;18.16;86.92
21742;BME280;11033;47.490;11.116;2022-08-19T02:16:18;92758.94;;;18.16;86.09
21742;BME280;11033;47.490;11.116;2022-08-19T02:18:44;92759.84;;;18.22;85.60
21742;BME280;11033;47.490;11.116;2022-08-19T02:21:10;92759.59;;;18.23;85.68
21742;BME280;11033;47.490;11.116;2022-08-19T02:23:35;92753.09;;;18.19;86.39
21742;BME280;11033;47.490;11.116;2022-08-19T02:26:01;92755.06;;;18.24;83.64
21742;BME280;11033;47.490;11.116;2022-08-19T02:28:26;92753.75;;;18.26;82.73
21742;BME280;11033;47.490;11.116;2022-08-19T02:30:51;92748.25;;;18.16;86.75
21742;BME280;11033;47.490;11.116;2022-08-19T02:33:17;92752.53;;;18.17;85.68
21742;BME280;11033;47.490;11.116;2022-08-19T02:35:44;92746.88;;;18.30;82.88
21742;BME280;11033;47.490;11.116;2022-08-19T02:38:09;92743.91;;;18.27;84.17
21742;BME280;11033;47.490;11.116;2022-08-19T02:40:57;92737.75;;;18.26;84.04
21742;BME280;11033;47.490;11.116;2022-08-19T02:43:24;92744.22;;;18.14;85.94
21742;BME280;11033;47.490;11.116;2022-08-19T02:45:50;92735.03;;;18.21;84.87
21742;BME280;11033;47.490;11.116;2022-08-19T02:48:18;92729.69;;;18.21;83.72
21742;BME280;11033;47.490;11.116;2022-08-19T02:50:44;92737.59;;;18.16;84.43
21742;BME280;11033;47.490;11.116;2022-08-19T02:53:10;92731.47;;;18.16;85.30
21742;BME280;11033;47.490;11.116;2022-08-19T02:55:42;92729.03;;;18.14;84.54
21742;BME280;11033;47.490;11.116;2022-08-19T02:58:08;92726.56;;;18.08;85.96
21742;BME280;11033;47.490;11.116;2022-08-19T03:00:34;92739.47;;;18.16;83.87
21742;BME280;11033;47.490;11.116;2022-08-19T03:02:59;92740.19;;;18.11;84.52
21742;BME280;11033;47.490;11.116;2022-08-19T03:05:25;92742.31;;;18.09;85.08
21742;BME280;11033;47.490;11.116;2022-08-19T03:07:52;92731.63;;;18.09;85.95
21742;BME280;11033;47.490;11.116;2022-08-19T03:10:17;92738.03;;;18.08;88.29
21742;BME280;11033;47.490;11.116;2022-08-19T03:12:42;92730.22;;;17.85;91.67
21742;BME280;11033;47.490;11.116;2022-08-19T03:15:08;92735.47;;;17.96;88.82
21742;BME280;11033;47.490;11.116;2022-08-19T03:17:34;92722.78;;;17.87;91.32
21742;BME280;11033;47.490;11.116;2022-08-19T03:20:00;92714.88;;;17.92;90.30
21742;BME280;11033;47.490;11.116;2022-08-19T03:22:25;92717.78;;;17.90;89.75
21742;BME280;11033;47.490;11.116;2022-08-19T03:24:51;92711.00;;;17.83;92.04
21742;BME280;11033;47.490;11.116;2022-08-19T03:27:16;92706.72;;;17.98;87.40
21742;BME280;11033;47.490;11.116;2022-08-19T03:29:42;92708.06;;;18.01;85.75
21742;BME280;11033;47.490;11.116;2022-08-19T03:32:08;92708.13;;;18.06;84.35
21742;BME280;11033;47.490;11.116;2022-08-19T03:34:36;92708.06;;;18.01;85.70
21742;BME280;11033;47.490;11.116;2022-08-19T03:37:06;92712.09;;;18.03;86.57
21742;BME280;11033;47.490;11.116;2022-08-19T03:39:32;92701.44;;;18.03;85.84
21742;BME280;11033;47.490;11.116;2022-08-19T03:41:57;92696.91;;;18.04;85.73
21742;BME280;11033;47.490;11.116;2022-08-19T03:44:25;92699.03;;;18.02;86.73
21742;BME280;11033;47.490;11.116;2022-08-19T03:46:53;92692.06;;;18.01;86.17
21742;BME280;11033;47.490;11.116;2022-08-19T03:49:21;92692.63;;;18.03;84.16
21742;BME280;11033;47.490;11.116;2022-08-19T03:51:48;92690.72;;;17.98;86.29
21742;BME280;11033;47.490;11.116;2022-08-19T03:54:15;92691.94;;;17.91;88.72
21742;BME280;11033;47.490;11.116;2022-08-19T03:56:42;92694.03;;;17.89;89.50
21742;BME280;11033;47.490;11.116;2022-08-19T03:59:11;92703.59;;;17.85;88.50
21742;BME280;11033;47.490;11.116;2022-08-19T04:01:38;92704.94;;;17.87;88.43
21742;BME280;11033;47.490;11.116;2022-08-19T04:04:04;92705.81;;;17.93;86.71
21742;BME280;11033;47.490;11.116;2022-08-19T04:06:31;92713.41;;;18.01;84.92
21742;BME280;11033;47.490;11.116;2022-08-19T04:08:59;92713.91;;;17.98;84.60
21742;BME280;11033;47.490;11.116;2022-08-19T04:11:29;92727.16;;;17.93;86.49
21742;BME280;11033;47.490;11.116;2022-08-19T04:13:55;92725.53;;;17.92;87.41
21742;BME280;11033;47.490;11.116;2022-08-19T04:16:23;92720.13;;;17.87;89.45
21742;BME280;11033;47.490;11.116;2022-08-19T04:18:49;92720.06;;;17.82;88.84
21742;BME280;11033;47.490;11.116;2022-08-19T04:21:17;92725.78;;;17.90;85.81
21742;BME280;11033;47.490;11.116;2022-08-19T04:23:43;92727.00;;;17.83;88.17
21742;BME280;11033;47.490;11.116;2022-08-19T04:26:13;92739.75;;;17.81;88.44
21742;BME280;11033;47.490;11.116;2022-08-19T04:28:39;92738.72;;;17.82;88.52
21742;BME280;11033;47.490;11.116;2022-08-19T04:31:04;92742.66;;;17.79;88.95
21742;BME280;11033;47.490;11.116;2022-08-19T04:33:29;92758.97;;;17.83;88.85
21742;BME280;11033;47.490;11.116;2022-08-19T04:35:55;92763.81;;;17.86;86.83
21742;BME280;11033;47.490;11.116;2022-08-19T04:38:23;92761.47;;;17.89;86.17
21742;BME280;11033;47.490;11.116;2022-08-19T04:40:50;92760.44;;;17.90;85.83
21742;BME280;11033;47.490;11.116;2022-08-19T04:43:36;92756.72;;;17.91;87.04
21742;BME280;11033;47.490;11.116;2022-08-19T04:46:10;92760.66;;;17.89;87.63
21742;BME280;11033;47.490;11.116;2022-08-19T04:48:37;92763.25;;;17.84;88.65
21742;BME280;11033;47.490;11.116;2022-08-19T04:51:07;92760.75;;;17.94;86.22
21742;BME280;11033;47.490;11.116;2022-08-19T04:53:35;92753.22;;;17.91;86.56
21742;BME280;11033;47.490;11.116;2022-08-19T04:56:12;92750.41;;;17.97;85.12
21742;BME280;11033;47.490;11.116;2022-08-19T04:58:39;92759.63;;;17.90;86.80
21742;BME280;11033;47.490;11.116;2022-08-19T05:01:08;92758.66;;;17.96;85.13
21742;BME280;11033;47.490;11.116;2022-08-19T05:03:35;92753.88;;;17.98;85.48
21742;BME280;11033;47.490;11.116;2022-08-19T05:06:05;92752.00;;;17.98;85.76
21742;BME280;11033;47.490;11.116;2022-08-19T05:08:33;92742.66;;;17.96;87.05
21742;BME280;11033;47.490;11.116;2022-08-19T05:10:59;92742.16;;;17.99;88.32
21742;BME280;11033;47.490;11.116;2022-08-19T05:13:24;92739.06;;;18.07;86.59
21742;BME280;11033;47.490;11.116;2022-08-19T05:15:55;92742.13;;;18.16;85.36
21742;BME280;11033;47.490;11.116;2022-08-19T05:18:21;92743.59;;;18.23;83.60
21742;BME280;11033;47.490;11.116;2022-08-19T05:21:07;92748.47;;;17.93;90.61
21742;BME280;11033;47.490;11.116;2022-08-19T05:23:51;92748.06;;;18.01;90.79
21742;BME280;11033;47.490;11.116;2022-08-19T05:26:17;92749.19;;;18.05;89.16
21742;BME280;11033;47.490;11.116;2022-08-19T05:28:42;92742.44;;;18.19;86.19
21742;BME280;11033;47.490;11.116;2022-08-19T05:31:07;92726.38;;;18.14;88.88
21742;BME280;11033;47.490;11.116;2022-08-19T05:33:33;92725.81;;;18.29;84.85
21742;BME280;11033;47.490;11.116;2022-08-19T05:35:58;92724.50;;;18.31;84.16
21742;BME280;11033;47.490;11.116;2022-08-19T05:38:23;92714.44;;;18.38;83.82
21742;BME280;11033;47.490;11.116;2022-08-19T05:40:49;92719.22;;;18.36;86.29
21742;BME280;11033;47.490;11.116;2022-08-19T05:43:15;92719.78;;;18.38;85.21
21742;BME280;11033;47.490;11.116;2022-08-19T05:45:41;92722.06;;;18.52;84.21
21742;BME280;11033;47.490;11.116;2022-08-19T05:48:08;92722.69;;;18.59;84.49
21742;BME280;11033;47.490;11.116;2022-08-19T05:50:40;92710.00;;;18.66;83.58
21742;BME280;11033;47.490;11.116;2022-08-19T05:53:05;92719.69;;;18.72;82.75
21742;BME280;11033;47.490;11.116;2022-08-19T05:55:32;92718.38;;;18.75;84.57
21742;BME280;11033;47.490;11.116;2022-08-19T05:57:57;92713.78;;;18.70;85.17
21742;BME280;11033;47.490;11.116;2022-08-19T06:00:23;92705.06;;;18.80;83.64
21742;BME280;11033;47.490;11.116;2022-08-19T06:02:48;92709.91;;;18.83;84.44
21742;BME280;11033;47.490;11.116;2022-08-19T06:05:13;92705.72;;;18.87;83.96
21742;BME280;11033;47.490;11.116;2022-08-19T06:07:39;92705.81;;;18.97;83.10
21742;BME280;11033;47.490;11.116;2022-08-19T06:10:08;92706.63;;;18.97;83.88
21742;BME280;11033;47.490;11.116;2022-08-19T06:12:34;92694.72;;;18.83;84.20
21742;BME280;11033;47.490;11.116;2022-08-19T06:15:06;92699.56;;;18.86;85.21
21742;BME280;11033;47.490;11.116;2022-08-19T06:17:31;92698.75;;;18.86;85.24
21742;BME280;11033;47.490;11.116;2022-08-19T06:19:59;92698.75;;;19.13;82.46
21742;BME280;11033;47.490;11.116;2022-08-19T06:22:25;92694.81;;;19.20;82.09
21742;BME280;11033;47.490;11.116;2022-08-19T06:24:50;92694.06;;;19.25;82.73
21742;BME280;11033;47.490;11.116;2022-08-19T06:27:18;92688.69;;;19.20;82.97
21742;BME280;11033;47.490;11.116;2022-08-19T06:29:43;92692.47;;;18.97;85.24
21742;BME280;11033;47.490;11.116;2022-08-19T06:32:08;92694.72;;;19.10;83.79
21742;BME280;11033;47.490;11.116;2022-08-19T06:34:34;92708.97;;;19.21;82.96
21742;BME280;11033;47.490;11.116;2022-08-19T06:37:00;92702.94;;;19.04;84.11
21742;BME280;11033;47.490;11.116;2022-08-19T06:39:29;92714.69;;;19.03;83.96
21742;BME280;11033;47.490;11.116;2022-08-19T06:41:57;92716.91;;;19.11;83.86
21742;BME280;11033;47.490;11.116;2022-08-19T06:44:27;92719.72;;;18.99;85.12
21742;BME280;11033;47.490;11.116;2022-08-19T06:46:54;92725.88;;;18.99;84.95
21742;BME280;11033;47.490;11.116;2022-08-19T06:49:20;92732.41;;;18.87;85.86
21742;BME280;11033;47.490;11.116;2022-08-19T06:51:47;92733.94;;;19.05;83.42
21742;BME280;11033;47.490;11.116;2022-08-19T06:54:14;92733.44;;;19.08;83.52
21742;BME280;11033;47.490;11.116;2022-08-19T06:56:40;92731.72;;;18.96;83.75
21742;BME280;11033;47.490;11.116;2022-08-19T06:59:11;92736.09;;;19.08;82.75
21742;BME280;11033;47.490;11.116;2022-08-19T07:01:39;92733.94;;;19.05;82.73
21742;BME280;11033;47.490;11.116;2022-08-19T07:04:06;92730.44;;;19.04;81.71
21742;BME280;11033;47.490;11.116;2022-08-19T07:06:33;92722.25;;;19.11;81.85
21742;BME280;11033;47.490;11.116;2022-08-19T07:08:59;92727.03;;;19.09;81.02
21742;BME280;11033;47.490;11.116;2022-08-19T07:11:24;92722.09;;;18.95;82.41
21742;BME280;11033;47.490;11.116;2022-08-19T07:13:50;92727.97;;;18.97;82.19
21742;BME280;11033;47.490;11.116;2022-08-19T07:16:18;92724.63;;;18.85;84.72
21742;BME280;11033;47.490;11.116;2022-08-19T07:18:45;92736.44;;;18.89;83.93
21742;BME280;11033;47.490;11.116;2022-08-19T07:21:18;92742.38;;;18.96;82.12
21742;BME280;11033;47.490;11.116;2022-08-19T07:23:44;92737.56;;;18.93;82.09
21742;BME280;11033;47.490;11.116;2022-08-19T07:26:19;92741.84;;;18.94;82.17
21742;BME280;11033;47.490;11.116;2022-08-19T07:28:47;92743.13;;;18.92;82.43
21742;BME280;11033;47.490;11.116;2022-08-19T07:31:17;92746.13;;;18.95;81.66
21742;BME280;11033;47.490;11.116;2022-08-19T07:33:43;92747.13;;;18.89;81.52
21742;BME280;11033;47.490;11.116;2022-08-19T07:36:12;92759.25;;;18.80;81.97
21742;BME280;11033;47.490;11.116;2022-08-19T07:38:42;92757.66;;;18.79;81.25
21742;BME280;11033;47.490;11.116;2022-08-19T07:41:11;92756.84;;;18.79;80.71
21742;BME280;11033;47.490;11.116;2022-08-19T07:43:37;92752.75;;;18.71;82.72
21742;BME280;11033;47.490;11.116;2022-08-19T07:46:03;92750.81;;;18.45;83.75
21742;BME280;11033;47.490;11.116;2022-08-19T07:48:28;92750.63;;;18.51;83.22
21742;BME280;11033;47.490;11.116;2022-08-19T07:50:59;92760.38;;;18.62;82.59
21742;BME280;11033;47.490;11.116;2022-08-19T07:53:27;92760.78;;;18.54;83.06
21742;BME280;11033;47.490;11.116;2022-08-19T07:55:53;92759.34;;;18.63;82.31
21742;BME280;11033;47.490;11.116;2022-08-19T07:58:21;92766.78;;;18.61;83.96
21742;BME280;11033;47.490;11.116;2022-08-19T08:00:48;92761.75;;;18.65;82.46
21742;BME280;11033;47.490;11.116;2022-08-19T08:03:17;92760.97;;;18.48;85.80
21742;BME280;11033;47.490;11.116;2022-08-19T08:05:44;92772.22;;;18.50;86.57
21742;BME280;11033;47.490;11.116;2022-08-19T08:08:28;92773.56;;;18.52;84.65
21742;BME280;11033;47.490;11.116;2022-08-19T08:11:12;92768.53;;;18.56;84.53
21742;BME280;11033;47.490;11.116;2022-08-19T08:13:38;92764.31;;;18.60;83.02
21742;BME280;11033;47.490;11.116;2022-08-19T08:16:03;92768.47;;;18.51;84.43
21742;BME280;11033;47.490;11.116;2022-08-19T08:18:29;92775.69;;;18.50;84.56
21742;BME280;11033;47.490;11.116;2022-08-19T08:20:55;92779.16;;;18.51;84.04
21742;BME280;11033;47.490;11.116;2022-08-19T08:23:21;92784.09;;;18.42;84.92
21742;BME280;11033;47.490;11.116;2022-08-19T08:25:51;92782.31;;;18.48;84.93
21742;BME280;11033;47.490;11.116;2022-08-19T08:28:18;92779.69;;;18.31;87.35
21742;BME280;11033;47.490;11.116;2022-08-19T08:30:44;92786.78;;;18.42;85.64
21742;BME280;11033;47.490;11.116;2022-08-19T08:33:11;92794.59;;;18.49;85.12
21742;BME280;11033;47.490;11.116;2022-08-19T08:35:36;92795.59;;;18.43;85.98
21742;BME280;11033;47.490;11.116;2022-08-19T08:38:02;92797.25;;;17.93;89.69
21742;BME280;11033;47.490;11.116;2022-08-19T08:45:52;92805.91;;;18.56;84.65
21742;BME280;11033;47.490;11.116;2022-08-19T08:48:25;92807.50;;;18.57;86.54
21742;BME280;11033;47.490;11.116;2022-08-19T08:50:54;92804.44;;;18.65;85.17
21742;BME280;11033;47.490;11.116;2022-08-19T08:53:22;92803.94;;;18.68;85.05
21742;BME280;11033;47.490;11.116;2022-08-19T08:55:48;92805.13;;;18.77;84.89
21742;BME280;11033;47.490;11.116;2022-08-19T08:58:18;92802.97;;;18.74;86.54
21742;BME280;11033;47.490;11.116;2022-08-19T09:00:47;92804.78;;;18.90;83.64
21742;BME280;11033;47.490;11.116;2022-08-19T09:03:22;92813.91;;;18.94;84.20
21742;BME280;11033;47.490;11.116;2022-08-19T09:06:04;92805.84;;;18.89;84.12
21742;BME280;11033;47.490;11.116;2022-08-19T09:08:55;92804.16;;;19.05;85.05
21742;BME280;11033;47.490;11.116;2022-08-19T09:11:37;92805.22;;;19.31;83.42
21742;BME280;11033;47.490;11.116;2022-08-19T09:16:53;92810.81;;;19.51;81.10
21742;BME280;11033;47.490;11.116;2022-08-19T09:19:18;92815.50;;;19.66;82.47
21742;BME280;11033;47.490;11.116;2022-08-19T09:21:44;92808.06;;;19.46;84.23
21742;BME280;11033;47.490;11.116;2022-08-19T09:24:10;92811.63;;;19.30;84.22
21742;BME280;11033;47.490;11.116;2022-08-19T09:26:35;92813.34;;;19.41;84.25
21742;BME280;11033;47.490;11.116;2022-08-19T09:29:01;92817.94;;;19.68;82.72
21742;BME280;11033;47.490;11.116;2022-08-19T09:31:30;92812.84;;;19.98;82.67
21742;BME280;11033;47.490;11.116;2022-08-19T09:33:58;92817.66;;;19.96;81.57
21742;BME280;11033;47.490;11.116;2022-08-19T09:36:26;92816.00;;;20.64;80.30
21742;BME280;11033;47.490;11.116;2022-08-19T09:38:54;92815.16;;;21.01;79.14
21742;BME280;11033;47.490;11.116;2022-08-19T09:41:22;92824.81;;;21.07;80.32
21742;BME280;11033;47.490;11.116;2022-08-19T09:43:50;92824.31;;;21.20;79.55
21742;BME280;11033;47.490;11.116;2022-08-19T09:46:21;92823.94;;;20.91;78.81
21742;BME280;11033;47.490;11.116;2022-08-19T09:48:48;92815.91;;;21.64;77.58
21742;BME280;11033;47.490;11.116;2022-08-19T09:51:24;92809.56;;;22.16;77.10
21742;BME280;11033;47.490;11.116;2022-08-19T09:53:51;92807.38;;;22.48;76.13
21742;BME280;11033;47.490;11.116;2022-08-19T09:56:19;92811.16;;;22.37;75.38
21742;BME280;11033;47.490;11.116;2022-08-19T09:58:45;92813.84;;;22.37;76.55
21742;BME280;11033;47.490;11.116;2022-08-19T10:01:18;92820.25;;;21.95;75.73
21742;BME280;11033;47.490;11.116;2022-08-19T10:03:47;92810.09;;;22.12;76.05
21742;BME280;11033;47.490;11.116;2022-08-19T10:06:14;92809.28;;;22.07;72.75
21742;BME280;11033;47.490;11.116;2022-08-19T10:08:39;92804.69;;;22.53;74.13
21742;BME280;11033;47.490;11.116;2022-08-19T10:11:05;92803.13;;;22.22;72.52
21742;BME280;11033;47.490;11.116;2022-08-19T10:13:31;92804.69;;;22.02;72.51
21742;BME280;11033;47.490;11.116;2022-08-19T10:16:05;92804.19;;;22.31;71.74
21742;BME280;11033;47.490;11.116;2022-08-19T10:18:32;92793.38;;;22.92;70.86
21742;BME280;11033;47.490;11.116;2022-08-19T10:21:06;92791.53;;;23.47;70.98
21742;BME280;11033;47.490;11.116;2022-08-19T10:23:36;92788.88;;;23.42;68.72
21742;BME280;11033;47.490;11.116;2022-08-19T10:26:03;92792.34;;;23.37;70.43
21742;BME280;11033;47.490;11.116;2022-08-19T10:28:31;92781.72;;;23.71;68.31
21742;BME280;11033;47.490;11.116;2022-08-19T10:30:56;92790.63;;;23.66;68.63
21742;BME280;11033;47.490;11.116;2022-08-19T10:33:21;92790.94;;;24.38;67.92
21742;BME280;11033;47.490;11.116;2022-08-19T10:35:47;92783.28;;;24.16;65.68
21742;BME280;11033;47.490;11.116;2022-08-19T10:38:12;92776.78;;;24.22;65.38
21742;BME280;11033;47.490;11.116;2022-08-19T10:40:37;92789.22;;;24.47;65.73
21742;BME280;11033;47.490;11.116;2022-08-19T10:43:03;92784.09;;;24.17;62.89
21742;BME280;11033;47.490;11.116;2022-08-19T10:45:28;92789.94;;;23.90;63.20
21742;BME280;11033;47.490;11.116;2022-08-19T10:47:54;92782.75;;;24.48;64.60
21742;BME280;11033;47.490;11.116;2022-08-19T10:50:19;92772.66;;;24.88;64.17
21742;BME280;11033;47.490;11.116;2022-08-19T10:53:05;92775.81;;;24.42;62.90
21742;BME280;11033;47.490;11.116;2022-08-19T10:55:33;92772.44;;;24.26;65.15
21742;BME280;11033;47.490;11.116;2022-08-19T10:58:19;92770.31;;;23.35;63.54
21742;BME280;11033;47.490;11.116;2022-08-19T11:00:56;92766.22;;;24.60;63.46
21742;BME280;11033;47.490;11.116;2022-08-19T11:03:22;92762.91;;;24.92;63.30
21742;BME280;11033;47.490;11.116;2022-08-19T11:06:01;92757.72;;;24.14;62.64
21742;BME280;11033;47.490;11.116;2022-08-19T11:08:27;92754.59;;;24.36;62.40
21742;BME280;11033;47.490;11.116;2022-08-19T11:10:54;92758.31;;;24.11;63.55
21742;BME280;11033;47.490;11.116;2022-08-19T11:13:24;92758.97;;;24.55;64.07
21742;BME280;11033;47.490;11.116;2022-08-19T11:15:58;92750.19;;;24.16;62.87
21742;BME280;11033;47.490;11.116;2022-08-19T11:18:23;92743.25;;;24.91;63.21
21742;BME280;11033;47.490;11.116;2022-08-19T11:20:49;92737.53;;;25.41;62.86
21742;BME280;11033;47.490;11.116;2022-08-19T11:23:14;92742.44;;;25.39;63.22
21742;BME280;11033;47.490;11.116;2022-08-19T11:25:39;92743.66;;;25.65;62.79
21742;BME280;11033;47.490;11.116;2022-08-19T11:28:05;92748.03;;;25.61;62.16
21742;BME280;11033;47.490;11.116;2022-08-19T11:30:30;92751.38;;;23.99;62.32
21742;BME280;11033;47.490;11.116;2022-08-19T11:32:55;92750.66;;;24.23;60.47
21742;BME280;11033;47.490;11.116;2022-08-19T11:35:20;92743.84;;;23.96;59.83
21742;BME280;11033;47.490;11.116;2022-08-19T11:37:48;92745.50;;;25.08;61.15
21742;BME280;11033;47.490;11.116;2022-08-19T11:40:13;92742.63;;;24.76;58.96
21742;BME280;11033;47.490;11.116;2022-08-19T11:42:39;92744.34;;;25.76;60.34
21742;BME280;11033;47.490;11.116;2022-08-19T11:45:20;92743.53;;;25.94;59.22
21742;BME280;11033;47.490;11.116;2022-08-19T11:47:46;92737.41;;;25.70;57.52
21742;BME280;11033;47.490;11.116;2022-08-19T11:50:12;92732.31;;;25.68;58.55
21742;BME280;11033;47.490;11.116;2022-08-19T11:52:38;92736.81;;;25.91;56.04
21742;BME280;11033;47.490;11.116;2022-08-19T11:55:03;92736.22;;;25.95;58.75
21742;BME280;11033;47.490;11.116;2022-08-19T11:57:29;92730.81;;;25.95;56.58
21742;BME280;11033;47.490;11.116;2022-08-19T11:59:55;92731.81;;;25.23;59.79
21742;BME280;11033;47.490;11.116;2022-08-19T12:02:20;92725.00;;;25.87;59.29
21742;BME280;11033;47.490;11.116;2022-08-19T12:04:46;92733.13;;;26.20;57.71
21742;BME280;11033;47.490;11.116;2022-08-19T12:07:12;92731.19;;;26.39;59.22
21742;BME280;11033;47.490;11.116;2022-08-19T12:09:37;92726.63;;;26.53;58.04
21742;BME280;11033;47.490;11.116;2022-08-19T12:12:04;92729.94;;;26.32;57.84
21742;BME280;11033;47.490;11.116;2022-08-19T12:14:30;92723.94;;;26.21;57.33
21742;BME280;11033;47.490;11.116;2022-08-19T12:16:56;92730.59;;;26.42;57.55
21742;BME280;11033;47.490;11.116;2022-08-19T12:19:22;92729.16;;;26.31;59.24
21742;BME280;11033;47.490;11.116;2022-08-19T12:21:47;92734.28;;;26.93;57.59
21742;BME280;11033;47.490;11.116;2022-08-19T12:24:13;92730.69;;;27.11;57.37
21742;BME280;11033;47.490;11.116;2022-08-19T12:26:38;92734.00;;;26.48;57.26
21742;BME280;11033;47.490;11.116;2022-08-19T12:29:03;92734.69;;;27.13;58.06
21742;BME280;11033;47.490;11.116;2022-08-19T12:31:29;92735.88;;;27.62;56.65
21742;BME280;11033;47.490;11.116;2022-08-19T12:33:55;92728.88;;;27.06;56.77
21742;BME280;11033;47.490;11.116;2022-08-19T12:36:20;92733.88;;;28.13;56.23
21742;BME280;11033;47.490;11.116;2022-08-19T12:38:47;92726.72;;;28.84;55.21
21742;BME280;11033;47.490;11.116;2022-08-19T12:41:14;92728.09;;;28.81;55.41
21742;BME280;11033;47.490;11.116;2022-08-19T12:43:40;92728.53;;;29.06;52.77
21742;BME280;11033;47.490;11.116;2022-08-19T12:46:07;92719.81;;;29.26;54.84
21742;BME280;11033;47.490;11.116;2022-08-19T12:48:32;92723.75;;;29.02;53.87
21742;BME280;11033;47.490;11.116;2022-08-19T12:50:58;92727.38;;;29.29;53.97
21742;BME280;11033;47.490;11.116;2022-08-19T12:53:24;92727.56;;;29.01;53.01
21742;BME280;11033;47.490;11.116;2022-08-19T12:55:57;92727.84;;;28.91;54.43
21742;BME280;11033;47.490;11.116;2022-08-19T12:58:22;92728.41;;;28.80;54.24
21742;BME280;11033;47.490;11.116;2022-08-19T13:00:48;92732.72;;;28.50;53.21
21742;BME280;11033;47.490;11.116;2022-08-19T13:03:14;92731.53;;;29.35;52.80
21742;BME280;11033;47.490;11.116;2022-08-19T13:05:40;92734.38;;;30.04;52.41
21742;BME280;11033;47.490;11.116;2022-08-19T13:08:05;92743.25;;;29.53;50.54
21742;BME280;11033;47.490;11.116;2022-08-19T13:10:33;92744.72;;;30.71;50.88